createdAt,value
2023-05-02T00:03:10.025Z,74.12
2023-05-02T00:18:12.104Z,73.58
2023-05-02T00:33:15.229Z,75.36
2023-05-02T00:48:19.906Z,76.48
2023-05-02T01:03:55.339Z,76.60
2023-05-02T01:18:59.775Z,78.90
2023-05-02T01:34:03.192Z,79.10
2023-05-02T01:49:08.138Z,80.92
2023-05-02T02:04:12.872Z,82.17
2023-05-02T02:19:15.620Z,83.27
2023-05-02T02:34:17.281Z,83.28
2023-05-02T02:49:38.731Z,86.05
2023-05-02T03:04:43.148Z,89.15
2023-05-02T03:19:44.946Z,88.48
2023-05-02T03:34:46.742Z,86.37
2023-05-02T03:49:48.394Z,85.94
2023-05-02T04:04:50.250Z,87.71
2023-05-02T04:19:52.642Z,89.98
2023-05-02T04:34:54.395Z,86.62
2023-05-02T04:49:56.104Z,85.98
2023-05-02T05:04:57.961Z,81.25
2023-05-02T05:19:59.866Z,79.31
2023-05-02T05:35:02.493Z,77.81
2023-05-02T05:50:04.764Z,78.07
2023-05-02T06:05:06.967Z,75.93
2023-05-02T06:20:09.478Z,73.48
2023-05-02T06:35:12.244Z,70.21
2023-05-02T06:50:14.046Z,68.82
2023-05-02T07:05:16.746Z,68.43
2023-05-02T07:20:18.509Z,66.06
2023-05-02T07:35:20.322Z,63.81
2023-05-02T07:50:22.758Z,63.30
2023-05-02T08:05:24.503Z,63.52
2023-05-02T08:20:26.422Z,62.99
2023-05-02T08:35:31.530Z,62.43
2023-05-02T08:50:37.995Z,60.70
2023-05-02T09:05:42.999Z,59.12
2023-05-02T09:20:44.894Z,58.30
2023-05-02T09:35:55.230Z,58.19
2023-05-02T09:50:57.848Z,55.46
2023-05-02T10:05:59.983Z,55.87
2023-05-02T10:21:10.735Z,56.20
2023-05-02T10:36:15.239Z,52.54
2023-05-02T10:51:28.598Z,50.67
2023-05-02T11:06:31.195Z,48.40
2023-05-02T11:21:33.263Z,48.88
2023-05-02T11:36:35.749Z,48.70
2023-05-02T11:51:37.775Z,46.50
2023-05-02T12:06:39.669Z,46.35
2023-05-02T12:21:41.429Z,46.47
2023-05-02T12:36:46.312Z,46.53
2023-05-02T12:51:54.017Z,45.72
2023-05-02T13:06:55.962Z,46.51
2023-05-02T13:21:57.970Z,46.97
2023-05-02T13:36:59.766Z,45.40
2023-05-02T13:52:01.481Z,45.39
2023-05-02T14:07:03.199Z,45.18
2023-05-02T14:22:04.939Z,44.96
2023-05-02T14:37:08.703Z,45.68
2023-05-02T14:52:10.461Z,45.18
2023-05-02T15:07:12.195Z,45.47
2023-05-02T15:22:15.934Z,45.34
2023-05-02T15:37:17.682Z,45.16
2023-05-02T15:52:19.562Z,44.78
2023-05-02T16:07:21.374Z,45.25
2023-05-02T16:22:23.066Z,45.02
2023-05-02T16:37:25.290Z,46.08
2023-05-02T16:52:27.398Z,47.72
2023-05-02T17:07:29.144Z,47.92
2023-05-02T17:22:31.149Z,46.65
2023-05-02T17:37:33.069Z,46.38
2023-05-02T17:52:35.635Z,46.67
2023-05-02T18:07:37.492Z,48.08
2023-05-02T18:22:39.237Z,48.63
2023-05-02T18:37:41.161Z,49.05
2023-05-02T18:52:42.956Z,49.10
2023-05-02T19:07:44.970Z,49.12
2023-05-02T19:22:46.905Z,49.62
2023-05-02T19:37:48.944Z,47.61
2023-05-02T19:52:50.818Z,49.17
2023-05-02T20:07:52.695Z,50.59
2023-05-02T20:22:58.358Z,50.99
2023-05-02T20:38:00.037Z,51.54
2023-05-02T20:53:02.216Z,53.16
2023-05-02T21:08:04.025Z,54.84
2023-05-02T21:23:05.953Z,55.69
2023-05-02T21:38:07.770Z,54.57
2023-05-02T21:53:10.530Z,55.13
2023-05-02T22:08:13.485Z,57.53
2023-05-02T22:23:15.882Z,57.47
2023-05-02T22:38:19.632Z,59.10
2023-05-02T22:53:25.179Z,58.11
2023-05-02T23:08:26.971Z,56.89
2023-05-02T23:23:28.584Z,56.51
2023-05-02T23:38:31.366Z,57.76
2023-05-02T23:53:33.197Z,55.52
